Time;durP1;ratioP1;P1;durP2;ratioP2;P2;SDS_P1;SDS_P2;PMS_P1;PMS_P2;Temp;Humidity;BMP_temperature;BMP_pressure;BME280_temperature;BME280_humidity;BME280_pressure;Samples;Min_cycle;Max_cycle;Signal;HPM_P1;HPM_P2
2024/01/09 00:01:43;;;;;;;6.30;2.17;;;-2.00;99.90;;;;;;5013137;28;20506;-75
2024/01/09 00:04:09;;;;;;;4.33;1.23;;;-2.00;99.90;;;;;;5004546;28;20038;-75
2024/01/09 00:06:35;;;;;;;3.75;1.42;;;-2.00;99.90;;;;;;5015852;28;20039;-75
2024/01/09 00:09:02;;;;;;;6.82;1.20;;;-2.10;99.90;;;;;;5038488;28;20025;-75
2024/01/09 00:11:28;;;;;;;7.95;1.60;;;-2.10;99.90;;;;;;5016214;28;20056;-77
2024/01/09 00:13:54;;;;;;;5.30;1.63;;;-2.20;99.90;;;;;;5005441;28;20124;-75
2024/01/09 00:16:20;;;;;;;4.22;1.38;;;-2.20;99.90;;;;;;5005163;28;20083;-76
2024/01/09 00:18:46;;;;;;;2.25;1.27;;;-2.20;99.90;;;;;;5013165;28;20042;-77
2024/01/09 00:21:11;;;;;;;4.75;1.63;;;-2.10;99.90;;;;;;5004978;28;20026;-75
2024/01/09 00:23:37;;;;;;;5.20;1.58;;;-2.10;99.90;;;;;;5020423;28;20037;-76
2024/01/09 00:26:02;;;;;;;4.00;1.33;;;-2.10;99.90;;;;;;5024238;28;20060;-75
2024/01/09 00:28:28;;;;;;;4.35;1.48;;;-2.20;99.90;;;;;;5023812;28;20029;-77
2024/01/09 00:30:54;;;;;;;3.40;1.40;;;-2.20;99.90;;;;;;5023805;28;20029;-76
2024/01/09 00:33:19;;;;;;;2.85;1.17;;;-2.20;99.90;;;;;;5026070;28;20035;-76
2024/01/09 00:35:45;;;;;;;3.88;1.38;;;-2.20;99.90;;;;;;5025725;28;20392;-75
2024/01/09 00:38:11;;;;;;;3.35;1.40;;;-2.20;99.90;;;;;;5021042;28;20494;-75
2024/01/09 00:40:36;;;;;;;9.50;1.38;;;-2.20;99.90;;;;;;5004146;28;20033;-76
2024/01/09 00:43:02;;;;;;;3.33;1.20;;;-2.20;99.90;;;;;;5014878;28;20045;-75
2024/01/09 00:45:27;;;;;;;3.75;1.38;;;-2.20;99.90;;;;;;5024453;28;20831;-75
2024/01/09 00:47:53;;;;;;;2.63;1.23;;;-2.20;99.90;;;;;;5023382;28;20033;-75
2024/01/09 00:50:19;;;;;;;2.60;1.13;;;-2.20;99.90;;;;;;5014889;28;20030;-75
2024/01/09 00:52:44;;;;;;;2.92;0.90;;;-2.20;99.90;;;;;;5003992;28;20169;-75
2024/01/09 00:55:10;;;;;;;2.45;1.10;;;-2.20;99.90;;;;;;5005547;28;20494;-76
2024/01/09 00:57:36;;;;;;;5.18;1.17;;;-2.20;99.90;;;;;;5014476;28;20037;-75
2024/01/09 01:00:02;;;;;;;2.45;1.17;;;-2.30;99.90;;;;;;5023183;28;20029;-75
2024/01/09 01:02:28;;;;;;;3.97;1.17;;;-2.30;99.90;;;;;;5026417;28;20030;-75
2024/01/09 01:04:53;;;;;;;4.07;1.50;;;-2.40;99.90;;;;;;5021941;28;20113;-76
2024/01/09 01:07:19;;;;;;;2.53;1.05;;;-2.40;99.90;;;;;;5026983;28;20115;-76
2024/01/09 01:09:44;;;;;;;3.53;1.70;;;-2.40;99.90;;;;;;5034724;28;20037;-75
2024/01/09 01:12:10;;;;;;;2.15;0.93;;;-2.40;99.90;;;;;;5022539;28;20550;-76
2024/01/09 01:14:36;;;;;;;4.05;1.10;;;-2.40;99.90;;;;;;5009339;28;20041;-75
2024/01/09 01:17:01;;;;;;;3.33;1.42;;;-2.40;99.90;;;;;;5026451;28;20041;-75
2024/01/09 01:19:27;;;;;;;4.20;1.10;;;-2.40;99.90;;;;;;5028939;28;20044;-75
2024/01/09 01:21:52;;;;;;;4.20;1.10;;;-2.40;99.90;;;;;;5027345;28;20429;-75
2024/01/09 01:24:18;;;;;;;2.95;1.10;;;-2.30;99.90;;;;;;5010559;28;20038;-75
2024/01/09 01:26:44;;;;;;;3.45;1.23;;;-2.40;99.90;;;;;;5007959;28;20050;-75
2024/01/09 01:29:09;;;;;;;4.63;1.02;;;-2.40;99.90;;;;;;5007141;28;20041;-75
2024/01/09 01:31:35;;;;;;;1.52;0.73;;;-2.40;99.90;;;;;;5016675;28;20030;-76
2024/01/09 01:34:00;;;;;;;6.97;1.88;;;-2.50;99.90;;;;;;5028656;28;20030;-76
2024/01/09 01:36:26;;;;;;;3.03;1.15;;;-2.40;99.90;;;;;;5029506;28;20064;-76
2024/01/09 01:38:51;;;;;;;3.20;1.25;;;-2.40;99.90;;;;;;5026415;28;20445;-76
2024/01/09 01:41:17;;;;;;;3.40;1.45;;;-2.50;99.90;;;;;;5024082;28;20036;-76
2024/01/09 01:43:42;;;;;;;6.07;1.30;;;-2.40;99.90;;;;;;5008632;28;20038;-75
2024/01/09 01:46:08;;;;;;;7.07;1.38;;;-2.50;99.90;;;;;;5012240;28;20123;-75
2024/01/09 01:48:35;;;;;;;3.38;1.10;;;-2.50;99.90;;;;;;5021509;28;20037;-76
2024/01/09 01:51:01;;;;;;;5.00;1.00;;;-2.50;99.90;;;;;;5026839;28;20033;-75
2024/01/09 01:53:29;;;;;;;3.78;1.33;;;-2.50;99.90;;;;;;5026929;28;20026;-75
2024/01/09 01:55:55;;;;;;;5.78;1.13;;;-2.50;99.90;;;;;;5026512;28;20087;-75
2024/01/09 01:58:21;;;;;;;4.10;1.20;;;-2.50;99.90;;;;;;5040639;28;20059;-76
2024/01/09 02:00:48;;;;;;;3.38;1.23;;;-2.60;99.90;;;;;;5036582;28;20044;-76
2024/01/09 02:03:14;;;;;;;3.28;1.50;;;-2.50;99.90;;;;;;5026842;28;20537;-75
2024/01/09 02:05:41;;;;;;;2.97;1.40;;;-2.60;99.90;;;;;;5026155;28;20120;-75
2024/01/09 02:08:07;;;;;;;4.88;1.75;;;-2.60;99.90;;;;;;5038852;28;20036;-75
2024/01/09 02:10:33;;;;;;;5.70;1.27;;;-2.50;99.90;;;;;;5045988;28;20025;-76
2024/01/09 02:12:59;;;;;;;4.07;1.35;;;-2.60;99.90;;;;;;5034453;28;21706;-76
2024/01/09 02:15:24;;;;;;;2.05;0.93;;;-2.50;99.90;;;;;;5027847;28;20033;-75
2024/01/09 02:17:50;;;;;;;3.70;1.35;;;-2.60;99.90;;;;;;5017708;28;20033;-76
2024/01/09 02:20:21;;;;;;;2.60;1.38;;;-2.60;99.90;;;;;;5011076;28;20367;-76
2024/01/09 02:22:47;;;;;;;2.40;1.13;;;-2.60;99.90;;;;;;5016537;28;20041;-75
2024/01/09 02:25:12;;;;;;;3.38;1.40;;;-2.60;99.90;;;;;;5026390;28;20033;-75
2024/01/09 02:27:53;;;;;;;2.53;1.13;;;-2.70;99.90;;;;;;5009609;28;20113;-75
2024/01/09 02:30:18;;;;;;;2.47;1.25;;;-2.70;99.90;;;;;;5006105;28;20037;-75
2024/01/09 02:32:44;;;;;;;2.97;1.17;;;-2.70;99.90;;;;;;5006429;28;20068;-75
2024/01/09 02:35:10;;;;;;;2.15;1.05;;;-2.70;99.90;;;;;;5014759;28;20044;-75
2024/01/09 02:37:35;;;;;;;3.95;1.58;;;-2.70;99.90;;;;;;5010545;28;20099;-75
2024/01/09 02:40:02;;;;;;;2.53;1.05;;;-2.70;99.90;;;;;;5026019;28;20065;-75
2024/01/09 02:42:28;;;;;;;3.70;1.23;;;-2.70;99.90;;;;;;5026585;28;20029;-75
2024/01/09 02:44:54;;;;;;;3.17;1.17;;;-2.70;99.90;;;;;;5010718;28;20447;-75
2024/01/09 02:47:23;;;;;;;2.28;1.30;;;-2.70;99.90;;;;;;5006897;28;20040;-75
2024/01/09 02:49:49;;;;;;;4.05;1.25;;;-2.70;99.90;;;;;;5005359;28;20085;-75
2024/01/09 02:52:16;;;;;;;3.95;1.45;;;-2.80;99.90;;;;;;5007911;28;20037;-75
2024/01/09 02:54:42;;;;;;;2.63;1.42;;;-2.80;99.90;;;;;;5006202;28;20030;-75
2024/01/09 02:57:08;;;;;;;2.08;1.08;;;-2.80;99.90;;;;;;5020838;28;20063;-75
2024/01/09 02:59:34;;;;;;;6.40;1.50;;;-2.70;99.90;;;;;;5045360;28;20032;-75
2024/01/09 03:01:59;;;;;;;2.08;1.40;;;-2.70;99.90;;;;;;5045494;28;20078;-75
2024/01/09 03:04:25;;;;;;;1.90;1.10;;;-2.70;99.90;;;;;;5045948;28;20053;-74
2024/01/09 03:06:50;;;;;;;3.58;0.95;;;-2.70;99.90;;;;;;5044649;28;20044;-75
2024/01/09 03:09:16;;;;;;;2.10;1.30;;;-2.70;99.90;;;;;;5025643;28;20045;-75
2024/01/09 03:11:43;;;;;;;2.10;1.10;;;-2.80;99.90;;;;;;5025570;28;20496;-75
2024/01/09 03:14:09;;;;;;;4.15;1.88;;;-2.70;99.90;;;;;;5017574;28;20042;-75
2024/01/09 03:16:34;;;;;;;2.55;1.10;;;-2.80;99.90;;;;;;5025597;28;20044;-76
2024/01/09 03:19:00;;;;;;;3.65;1.60;;;-2.80;99.90;;;;;;5015962;28;20066;-75
2024/01/09 03:21:25;;;;;;;2.67;1.17;;;-2.90;99.90;;;;;;5007679;28;20040;-75
2024/01/09 03:23:51;;;;;;;4.65;1.63;;;-2.80;99.90;;;;;;5004751;28;20041;-75
2024/01/09 03:26:17;;;;;;;4.18;1.67;;;-2.80;99.90;;;;;;5018515;28;20034;-75
2024/01/09 03:28:42;;;;;;;4.10;1.00;;;-2.90;99.90;;;;;;5020907;28;20045;-75
2024/01/09 03:31:17;;;;;;;3.92;1.00;;;-2.90;99.90;;;;;;5014932;28;20511;-74
2024/01/09 03:33:42;;;;;;;2.67;1.20;;;-2.90;99.90;;;;;;5011734;28;20042;-74
2024/01/09 03:36:08;;;;;;;2.97;1.35;;;-2.80;99.90;;;;;;5005176;28;20490;-74
2024/01/09 03:38:34;;;;;;;2.95;1.08;;;-2.90;99.90;;;;;;5005003;28;20034;-74
2024/01/09 03:40:59;;;;;;;4.72;1.38;;;-2.90;99.90;;;;;;5005052;28;20142;-74
2024/01/09 03:43:25;;;;;;;3.38;1.40;;;-2.90;99.90;;;;;;5005768;28;20080;-75
2024/01/09 03:45:52;;;;;;;3.88;1.30;;;-2.90;99.90;;;;;;5004509;28;20409;-75
2024/01/09 03:48:17;;;;;;;2.13;1.10;;;-2.90;99.90;;;;;;5024314;28;20080;-74
2024/01/09 03:50:43;;;;;;;3.97;1.30;;;-2.90;99.90;;;;;;5022941;28;20030;-75
2024/01/09 03:53:09;;;;;;;5.65;1.50;;;-2.90;99.90;;;;;;5022426;28;20829;-74
2024/01/09 03:55:34;;;;;;;2.42;0.95;;;-2.90;99.90;;;;;;5004971;28;20490;-75
2024/01/09 03:58:00;;;;;;;3.17;0.93;;;-2.90;99.90;;;;;;5025504;28;20119;-75
2024/01/09 04:00:25;;;;;;;2.60;1.30;;;-2.90;99.90;;;;;;5044411;28;20025;-74
2024/01/09 04:02:51;;;;;;;4.72;1.73;;;-2.90;99.90;;;;;;5028154;28;20033;-75
2024/01/09 04:05:16;;;;;;;3.15;1.20;;;-3.00;99.90;;;;;;5006855;28;20044;-74
2024/01/09 04:07:42;;;;;;;3.88;1.35;;;-3.00;99.90;;;;;;5024271;28;20047;-75
2024/01/09 04:10:08;;;;;;;4.55;1.25;;;-3.00;99.90;;;;;;5036885;28;20033;-74
2024/01/09 04:12:34;;;;;;;3.42;1.13;;;-3.00;99.90;;;;;;5024770;28;20111;-74
2024/01/09 04:14:59;;;;;;;2.97;1.67;;;-3.00;99.90;;;;;;5030093;28;20037;-74
2024/01/09 04:17:25;;;;;;;4.38;1.38;;;-3.10;99.90;;;;;;5020365;28;20080;-74
2024/01/09 04:19:50;;;;;;;3.03;1.25;;;-3.10;99.90;;;;;;5012541;28;20041;-74
2024/01/09 04:22:16;;;;;;;3.55;1.55;;;-3.00;99.90;;;;;;5025594;28;20040;-75
2024/01/09 04:24:42;;;;;;;4.15;1.83;;;-3.10;99.90;;;;;;5024560;28;20033;-75
2024/01/09 04:27:07;;;;;;;2.67;1.10;;;-3.10;99.90;;;;;;5020363;28;20037;-75
2024/01/09 04:29:33;;;;;;;2.55;1.60;;;-3.10;99.90;;;;;;5023961;28;20037;-74
2024/01/09 04:31:59;;;;;;;2.88;1.10;;;-3.10;99.90;;;;;;5024328;28;20116;-75
2024/01/09 04:34:24;;;;;;;4.20;1.20;;;-3.10;99.90;;;;;;5025179;28;20029;-74
2024/01/09 04:36:50;;;;;;;2.92;1.17;;;-3.10;99.90;;;;;;5017773;28;20035;-75
2024/01/09 04:39:15;;;;;;;2.03;0.93;;;-3.20;99.90;;;;;;5024103;28;20117;-74
2024/01/09 04:41:41;;;;;;;3.00;1.40;;;-3.20;99.90;;;;;;5012212;28;20034;-74
2024/01/09 04:44:06;;;;;;;3.97;1.48;;;-3.20;99.90;;;;;;5016344;28;20045;-74
2024/01/09 04:46:32;;;;;;;6.18;1.17;;;-3.20;99.90;;;;;;5019684;28;20081;-74
2024/01/09 04:48:58;;;;;;;10.32;1.95;;;-3.20;99.90;;;;;;5019464;28;20048;-74
2024/01/09 04:51:23;;;;;;;2.92;1.40;;;-3.20;99.90;;;;;;5012620;28;20025;-74
2024/01/09 04:53:49;;;;;;;5.25;2.00;;;-3.10;99.90;;;;;;5023495;28;20497;-75
2024/01/09 04:56:14;;;;;;;3.53;1.60;;;-3.20;99.90;;;;;;5025824;28;20026;-75
2024/01/09 04:58:40;;;;;;;4.47;1.45;;;-3.20;99.90;;;;;;5041317;28;20817;-74
2024/01/09 05:01:11;;;;;;;5.03;1.50;;;-3.20;99.90;;;;;;5030113;28;20037;-75
2024/01/09 05:03:37;;;;;;;3.83;1.38;;;-3.20;99.90;;;;;;5024457;28;20163;-74
2024/01/09 05:06:02;;;;;;;2.78;1.23;;;-3.20;99.90;;;;;;5022051;28;20121;-74
2024/01/09 05:08:28;;;;;;;3.85;1.73;;;-3.20;99.90;;;;;;5027063;28;20033;-74
2024/01/09 05:10:54;;;;;;;3.40;1.50;;;-3.20;99.90;;;;;;5009091;28;20034;-74
2024/01/09 05:13:19;;;;;;;6.47;1.17;;;-3.20;99.90;;;;;;5009913;28;20033;-74
2024/01/09 05:15:45;;;;;;;3.88;1.13;;;-3.10;99.90;;;;;;5004562;28;20066;-75
2024/01/09 05:18:11;;;;;;;4.88;1.70;;;-3.10;99.90;;;;;;5018288;28;20037;-74
2024/01/09 05:20:36;;;;;;;2.60;1.23;;;-3.20;99.90;;;;;;5024800;28;20397;-74
2024/01/09 05:23:03;;;;;;;2.70;1.08;;;-3.20;99.90;;;;;;5020133;28;20038;-74
2024/01/09 05:25:28;;;;;;;2.05;1.33;;;-3.20;99.90;;;;;;5012796;28;20803;-74
2024/01/09 05:27:55;;;;;;;3.42;1.80;;;-3.20;99.90;;;;;;5022967;28;20034;-75
2024/01/09 05:30:21;;;;;;;3.17;1.23;;;-3.30;99.90;;;;;;5004519;28;20064;-74
2024/01/09 05:32:46;;;;;;;4.45;1.95;;;-3.30;99.90;;;;;;5010490;28;20162;-74
2024/01/09 05:35:12;;;;;;;3.80;1.55;;;-3.30;99.90;;;;;;5024952;28;20045;-75
2024/01/09 05:37:37;;;;;;;4.15;1.50;;;-3.30;99.90;;;;;;5023708;28;20034;-74
2024/01/09 05:40:04;;;;;;;4.03;1.50;;;-3.30;99.90;;;;;;5022112;28;20029;-74
2024/01/09 05:42:29;;;;;;;4.43;1.35;;;-3.30;99.90;;;;;;5026733;28;20111;-74
2024/01/09 05:44:55;;;;;;;3.45;1.27;;;-3.40;99.90;;;;;;5021855;28;20072;-74
2024/01/09 05:47:20;;;;;;;3.72;1.63;;;-3.30;99.90;;;;;;5023404;28;20069;-73
2024/01/09 05:49:46;;;;;;;2.20;1.33;;;-3.30;99.90;;;;;;5022996;28;20039;-74
2024/01/09 05:52:11;;;;;;;3.63;1.58;;;-3.30;99.90;;;;;;5005907;28;20110;-74
2024/01/09 05:54:37;;;;;;;4.70;1.25;;;-3.30;99.90;;;;;;5013623;28;20045;-74
2024/01/09 05:57:03;;;;;;;2.08;1.10;;;-3.30;99.90;;;;;;5020577;28;21323;-74
2024/01/09 05:59:29;;;;;;;2.28;1.00;;;-3.40;99.90;;;;;;5035641;28;20056;-74
2024/01/09 06:01:55;;;;;;;5.38;1.48;;;-3.30;99.90;;;;;;5027605;28;20088;-74
2024/01/09 06:04:20;;;;;;;2.90;1.30;;;-3.40;99.90;;;;;;5019819;28;20409;-74
2024/01/09 06:06:46;;;;;;;3.70;1.25;;;-3.40;99.90;;;;;;5021915;28;20050;-74
2024/01/09 06:09:12;;;;;;;1.95;1.05;;;-3.40;99.90;;;;;;5044947;28;20512;-74
2024/01/09 06:11:38;;;;;;;4.70;1.30;;;-3.40;99.90;;;;;;5025596;28;20037;-74
2024/01/09 06:14:04;;;;;;;2.40;1.23;;;-3.30;99.90;;;;;;5024661;28;20482;-74
2024/01/09 06:16:29;;;;;;;4.05;1.13;;;-3.10;99.90;;;;;;5008911;28;20461;-74
2024/01/09 06:18:55;;;;;;;3.65;1.17;;;-3.20;99.90;;;;;;5019749;28;20039;-74
2024/01/09 06:21:20;;;;;;;2.60;1.08;;;-3.20;99.90;;;;;;5017529;28;20096;-74
2024/01/09 06:23:47;;;;;;;6.28;1.90;;;-3.30;99.90;;;;;;5026447;28;20032;-74
2024/01/09 06:26:14;;;;;;;6.88;2.28;;;-3.40;99.90;;;;;;5022638;28;20045;-73
2024/01/09 06:28:39;;;;;;;2.42;1.17;;;-3.40;99.90;;;;;;5023623;28;20718;-74
2024/01/09 06:31:05;;;;;;;2.75;1.02;;;-3.40;99.90;;;;;;5041779;28;20104;-73
2024/01/09 06:33:30;;;;;;;4.43;1.67;;;-3.50;99.90;;;;;;5031084;28;20116;-74
2024/01/09 06:35:56;;;;;;;7.03;1.77;;;-3.50;99.90;;;;;;5025272;28;20397;-74
2024/01/09 06:38:21;;;;;;;2.60;1.00;;;-3.60;99.90;;;;;;5016170;28;20058;-74
2024/01/09 06:40:47;;;;;;;4.45;1.40;;;-3.60;99.90;;;;;;5026552;28;20045;-75
2024/01/09 06:43:13;;;;;;;3.55;1.35;;;-3.60;99.90;;;;;;5019825;28;20478;-74
2024/01/09 06:45:38;;;;;;;3.72;1.17;;;-3.60;99.90;;;;;;5031937;28;20087;-74
2024/01/09 06:48:04;;;;;;;3.90;1.42;;;-3.60;99.90;;;;;;5030863;28;20030;-73
2024/01/09 06:50:30;;;;;;;3.10;1.10;;;-3.70;99.90;;;;;;5021088;28;20041;-73
2024/01/09 06:52:56;;;;;;;3.08;1.27;;;-3.60;99.90;;;;;;5028392;28;20033;-74
2024/01/09 06:55:21;;;;;;;4.75;2.03;;;-3.60;99.90;;;;;;5017114;28;20038;-73
2024/01/09 06:57:47;;;;;;;6.32;1.83;;;-3.70;99.90;;;;;;5024774;28;20071;-75
2024/01/09 07:00:13;;;;;;;3.67;1.80;;;-3.70;99.90;;;;;;5025620;28;20034;-74
2024/01/09 07:02:39;;;;;;;7.75;1.73;;;-3.70;99.90;;;;;;5017740;28;20030;-74
2024/01/09 07:05:05;;;;;;;3.25;1.33;;;-3.80;99.90;;;;;;5025130;28;20084;-74
2024/01/09 07:07:30;;;;;;;3.03;1.63;;;-3.80;99.90;;;;;;5019369;28;20029;-74
2024/01/09 07:09:56;;;;;;;5.60;1.67;;;-3.80;99.90;;;;;;5012124;28;20048;-74
2024/01/09 07:12:22;;;;;;;4.95;1.90;;;-3.80;99.90;;;;;;5012378;28;20667;-74
2024/01/09 07:14:47;;;;;;;2.85;1.35;;;-3.80;99.90;;;;;;5007776;28;20038;-76
2024/01/09 07:17:13;;;;;;;5.28;2.15;;;-3.80;99.90;;;;;;5007177;28;20053;-73
2024/01/09 07:19:39;;;;;;;4.05;1.48;;;-3.80;99.90;;;;;;5021440;28;20034;-74
2024/01/09 07:22:04;;;;;;;2.88;1.73;;;-3.80;99.90;;;;;;5012111;28;20030;-74
2024/01/09 07:24:30;;;;;;;5.57;1.92;;;-3.80;99.90;;;;;;5025911;28;20496;-74
2024/01/09 07:26:56;;;;;;;4.05;1.98;;;-3.90;99.90;;;;;;5019203;28;20033;-74
2024/01/09 07:29:21;;;;;;;2.78;1.17;;;-3.90;99.90;;;;;;5007504;28;20034;-74
2024/01/09 07:31:47;;;;;;;4.85;1.63;;;-3.80;99.90;;;;;;5037559;28;20030;-73
2024/01/09 07:34:13;;;;;;;14.20;2.17;;;-3.80;99.90;;;;;;5006214;28;20033;-73
2024/01/09 07:36:39;;;;;;;5.65;1.67;;;-3.90;99.90;;;;;;5017566;28;20036;-74
2024/01/09 07:39:06;;;;;;;4.07;1.83;;;-3.90;99.90;;;;;;5030008;28;20187;-73
2024/01/09 07:41:31;;;;;;;6.07;1.52;;;-3.90;99.90;;;;;;5031260;28;20037;-75
2024/01/09 07:43:57;;;;;;;4.18;1.98;;;-3.90;99.90;;;;;;5023779;28;20779;-74
2024/01/09 07:46:23;;;;;;;3.00;1.33;;;-4.00;99.90;;;;;;5021140;28;20493;-73
2024/01/09 07:48:48;;;;;;;2.63;1.10;;;-4.00;99.90;;;;;;5011199;28;20486;-74
2024/01/09 07:51:14;;;;;;;2.80;1.20;;;-3.90;99.90;;;;;;5014842;28;20103;-74
2024/01/09 07:53:39;;;;;;;6.75;1.60;;;-4.00;99.90;;;;;;5011907;28;20653;-74
2024/01/09 07:56:18;;;;;;;3.08;1.20;;;-4.00;99.90;;;;;;5014114;28;20091;-74
2024/01/09 07:58:44;;;;;;;3.97;1.40;;;-4.00;99.90;;;;;;5017260;28;20490;-73
2024/01/09 08:01:14;;;;;;;3.33;1.50;;;-3.90;99.90;;;;;;5021643;28;20037;-73
2024/01/09 08:03:43;;;;;;;4.55;1.48;;;-4.00;99.90;;;;;;5020451;28;20561;-73
2024/01/09 08:06:16;;;;;;;4.18;1.38;;;-4.00;99.90;;;;;;5026078;28;20489;-74
2024/01/09 08:08:42;;;;;;;3.17;1.40;;;-4.00;99.90;;;;;;5027605;28;20116;-74
2024/01/09 08:11:09;;;;;;;4.47;1.70;;;-4.00;99.90;;;;;;5024612;28;20171;-74
2024/01/09 08:13:35;;;;;;;4.25;1.60;;;-3.90;99.90;;;;;;5016708;28;20120;-74
2024/01/09 08:16:01;;;;;;;4.53;1.40;;;-3.90;99.90;;;;;;5020028;28;20037;-74
2024/01/09 08:18:27;;;;;;;3.00;1.20;;;-4.00;99.90;;;;;;5022247;28;20433;-74
2024/01/09 08:20:53;;;;;;;4.18;1.40;;;-4.00;99.90;;;;;;5010573;28;20037;-74
2024/01/09 08:23:19;;;;;;;3.65;1.50;;;-4.00;99.90;;;;;;5016951;28;20033;-74
2024/01/09 08:25:45;;;;;;;5.90;1.50;;;-3.90;99.90;;;;;;5012197;28;20033;-74
2024/01/09 08:28:10;;;;;;;5.15;1.30;;;-3.90;99.90;;;;;;5006010;28;20541;-73
2024/01/09 08:30:36;;;;;;;3.53;1.55;;;-3.90;99.90;;;;;;5026609;28;20028;-74
2024/01/09 08:33:02;;;;;;;3.35;1.10;;;-3.90;99.90;;;;;;5033137;28;20026;-73
2024/01/09 08:35:28;;;;;;;3.75;1.70;;;-3.90;99.90;;;;;;5020631;28;20079;-74
2024/01/09 08:37:53;;;;;;;2.55;1.13;;;-3.80;99.90;;;;;;5015016;28;20490;-74
2024/01/09 08:40:19;;;;;;;6.22;1.20;;;-3.80;99.90;;;;;;5012666;28;20051;-73
2024/01/09 08:42:44;;;;;;;4.78;1.33;;;-3.80;99.90;;;;;;5024696;28;20026;-74
2024/01/09 08:45:12;;;;;;;4.78;1.10;;;-3.80;99.90;;;;;;5010696;28;20100;-74
2024/01/09 08:47:38;;;;;;;3.95;1.25;;;-3.80;99.90;;;;;;5017071;28;20041;-73
2024/01/09 08:50:04;;;;;;;3.25;1.65;;;-3.70;99.90;;;;;;5015859;28;20037;-74
2024/01/09 08:52:31;;;;;;;3.13;1.52;;;-3.70;99.90;;;;;;5008339;28;20066;-74
2024/01/09 08:54:56;;;;;;;4.60;1.80;;;-3.70;99.90;;;;;;5015210;28;20036;-74
2024/01/09 08:57:22;;;;;;;4.63;1.23;;;-3.70;99.90;;;;;;5024964;28;20409;-74
2024/01/09 08:59:48;;;;;;;2.60;1.10;;;-3.60;99.90;;;;;;5012204;28;20029;-74
2024/01/09 09:02:14;;;;;;;3.75;1.80;;;-3.60;99.90;;;;;;5011194;28;20504;-74
2024/01/09 09:04:41;;;;;;;5.18;1.80;;;-3.50;99.90;;;;;;5016450;28;20061;-73
2024/01/09 09:07:07;;;;;;;4.35;1.38;;;-3.50;99.90;;;;;;5021300;28;20041;-73
2024/01/09 09:09:35;;;;;;;3.20;1.10;;;-3.40;99.90;;;;;;5014654;28;20033;-74
2024/01/09 09:12:01;;;;;;;5.68;1.02;;;-3.50;99.90;;;;;;5021976;28;20062;-74
2024/01/09 09:14:26;;;;;;;4.13;0.98;;;-3.40;99.90;;;;;;5013336;28;20034;-72
2024/01/09 09:16:52;;;;;;;3.75;1.10;;;-3.30;99.90;;;;;;5009590;28;20080;-74
2024/01/09 09:19:20;;;;;;;3.38;1.33;;;-3.30;99.90;;;;;;5022047;28;20045;-74
2024/01/09 09:21:45;;;;;;;4.60;1.65;;;-3.20;99.90;;;;;;5038370;28;20097;-73
2024/01/09 09:24:11;;;;;;;3.90;1.52;;;-3.10;99.90;;;;;;5030168;28;20485;-74
2024/01/09 09:26:36;;;;;;;5.28;2.00;;;-3.10;99.90;;;;;;5026525;28;20072;-74
2024/01/09 09:29:02;;;;;;;3.90;1.30;;;-3.10;99.90;;;;;;5026912;28;20070;-73
2024/01/09 09:31:28;;;;;;;3.55;1.20;;;-3.00;99.90;;;;;;5024224;28;20481;-74
2024/01/09 09:33:55;;;;;;;3.78;1.55;;;-2.90;99.90;;;;;;5028104;28;20025;-74
2024/01/09 09:36:21;;;;;;;2.60;1.10;;;-2.90;99.90;;;;;;5012117;28;20083;-74
2024/01/09 09:38:47;;;;;;;5.25;1.60;;;-2.90;99.90;;;;;;5013090;28;20041;-74
2024/01/09 09:41:16;;;;;;;1.95;0.88;;;-2.80;99.90;;;;;;5019936;28;20025;-73
2024/01/09 09:43:50;;;;;;;1.45;0.73;;;-2.80;99.90;;;;;;5021933;28;20068;-73
2024/01/09 09:46:23;;;;;;;4.07;1.55;;;-2.70;99.90;;;;;;5016275;28;20136;-74
2024/01/09 09:48:52;;;;;;;3.65;1.50;;;-2.70;99.90;;;;;;5031008;28;20028;-74
2024/01/09 09:51:18;;;;;;;3.92;1.30;;;-2.60;99.90;;;;;;5013735;28;20094;-74
2024/01/09 09:53:44;;;;;;;3.42;1.48;;;-2.60;99.90;;;;;;5009276;28;20093;-74
2024/01/09 09:56:13;;;;;;;3.88;1.20;;;-2.60;99.90;;;;;;5022594;28;20517;-73
2024/01/09 09:58:39;;;;;;;7.70;2.30;;;-2.50;99.90;;;;;;5036927;28;20116;-74
2024/01/09 10:01:08;;;;;;;2.95;1.23;;;-2.50;99.90;;;;;;5014421;28;20080;-74
2024/01/09 10:03:35;;;;;;;5.40;1.60;;;-2.40;99.90;;;;;;5020488;28;20038;-74
2024/01/09 10:06:05;;;;;;;5.05;1.40;;;-2.40;99.90;;;;;;5026695;28;20367;-74
2024/01/09 10:08:33;;;;;;;;;;;-2.30;99.90;;;;;;5052177;28;20033;-73
2024/01/09 10:10:58;;;;;;;2.38;1.13;;;-2.20;99.90;;;;;;5040368;28;19913;-74
2024/01/09 10:13:24;;;;;;;4.35;1.10;;;-2.20;99.40;;;;;;5019393;28;20401;-73
2024/01/09 10:15:57;;;;;;;3.47;1.20;;;-2.20;99.50;;;;;;5024451;28;20046;-74
2024/01/09 10:18:22;;;;;;;3.35;1.25;;;-2.20;99.90;;;;;;5021370;28;20023;-74
2024/01/09 10:20:48;;;;;;;2.35;0.95;;;-2.10;99.40;;;;;;5017283;28;20045;-76
2024/01/09 10:23:14;;;;;;;1.92;1.00;;;-2.00;98.70;;;;;;5015313;28;20026;-74
2024/01/09 10:25:40;;;;;;;4.90;1.30;;;-2.00;98.50;;;;;;5011637;28;20050;-73
2024/01/09 10:28:08;;;;;;;5.97;1.60;;;-1.90;98.30;;;;;;5018214;28;20102;-74
2024/01/09 10:30:34;;;;;;;3.72;1.13;;;-1.90;98.50;;;;;;5012648;28;20045;-73
2024/01/09 10:33:00;;;;;;;2.88;1.08;;;-1.90;98.00;;;;;;5025462;28;20034;-74
2024/01/09 10:35:27;;;;;;;2.95;1.20;;;-1.80;98.10;;;;;;5014204;28;20474;-74
2024/01/09 10:37:56;;;;;;;3.70;1.00;;;-1.80;98.00;;;;;;5017232;28;20116;-74
2024/01/09 10:40:26;;;;;;;2.63;1.10;;;-1.80;97.40;;;;;;5026329;28;20067;-74
2024/01/09 10:42:51;;;;;;;3.08;0.95;;;-1.70;97.50;;;;;;5018736;28;20401;-73
2024/01/09 10:45:20;;;;;;;2.55;0.80;;;-1.70;97.60;;;;;;5018266;28;20029;-73
2024/01/09 10:47:47;;;;;;;4.47;1.30;;;-1.60;97.80;;;;;;5018102;28;20046;-73
2024/01/09 10:50:15;;;;;;;5.30;0.90;;;-1.60;97.40;;;;;;5027343;28;20033;-72
2024/01/09 10:52:40;;;;;;;6.25;0.98;;;-1.50;97.40;;;;;;5027259;28;20048;-73
2024/01/09 10:55:09;;;;;;;2.10;0.65;;;-1.40;97.10;;;;;;5037192;28;20037;-73
2024/01/09 10:57:37;;;;;;;2.80;0.90;;;-1.40;96.10;;;;;;5036810;28;20394;-74
2024/01/09 11:00:08;;;;;;;3.15;1.13;;;-1.30;95.70;;;;;;5010746;28;20029;-74
2024/01/09 11:02:36;;;;;;;4.20;1.65;;;-1.30;95.80;;;;;;5016315;28;20657;-73
2024/01/09 11:05:03;;;;;;;2.30;0.90;;;-1.30;95.80;;;;;;5011487;28;20108;-74
2024/01/09 11:07:32;;;;;;;2.20;0.77;;;-1.20;96.00;;;;;;5024527;28;20512;-74
2024/01/09 11:10:00;;;;;;;3.08;1.65;;;-1.20;94.90;;;;;;5016982;28;20037;-74
2024/01/09 11:12:34;;;;;;;3.15;1.20;;;-1.20;95.20;;;;;;5010797;28;20026;-73
2024/01/09 11:15:07;;;;;;;2.60;1.40;;;-1.20;95.30;;;;;;5021283;28;20041;-74
2024/01/09 11:17:36;;;;;;;4.20;1.45;;;-1.10;95.10;;;;;;5017856;28;20037;-74
2024/01/09 11:20:05;;;;;;;3.90;0.80;;;-1.00;95.30;;;;;;5005373;28;20034;-74
2024/01/09 11:22:36;;;;;;;2.42;0.90;;;-1.00;94.40;;;;;;5019075;28;20030;-74
2024/01/09 11:25:15;;;;;;;3.58;0.50;;;-0.90;94.60;;;;;;5016652;28;20381;-73
2024/01/09 11:27:42;;;;;;;2.67;0.90;;;-0.90;94.60;;;;;;5025224;28;20090;-73
2024/01/09 11:30:14;;;;;;;3.38;1.30;;;-1.00;94.90;;;;;;5013625;28;20044;-74
2024/01/09 11:32:39;;;;;;;3.30;1.13;;;-0.90;95.00;;;;;;5016821;28;20037;-73
2024/01/09 11:35:10;;;;;;;2.53;0.82;;;-0.90;94.80;;;;;;5017697;28;20129;-74
2024/01/09 11:37:37;;;;;;;;;;;-0.90;95.40;;;;;;5007694;28;20053;-73
2024/01/09 11:40:02;;;;;;;3.45;1.25;;;-0.80;95.20;;;;;;5025991;28;19967;-74
2024/01/09 11:42:28;;;;;;;2.38;1.08;;;-0.80;94.50;;;;;;5024503;28;20045;-72
2024/01/09 11:44:54;;;;;;;4.22;1.17;;;-0.80;94.70;;;;;;5038569;28;20044;-73
2024/01/09 11:47:19;;;;;;;4.90;1.50;;;-0.80;94.70;;;;;;5018391;28;20489;-74
2024/01/09 11:49:45;;;;;;;7.15;0.88;;;-0.70;94.90;;;;;;5014770;28;20034;-74
2024/01/09 11:52:11;;;;;;;7.95;2.53;;;-0.70;94.30;;;;;;5025159;28;20049;-74
2024/01/09 11:54:37;;;;;;;5.03;1.35;;;-0.70;93.70;;;;;;5026729;28;20052;-74
2024/01/09 11:57:04;;;;;;;2.58;0.73;;;-0.70;94.20;;;;;;5024866;28;20095;-74
2024/01/09 11:59:33;;;;;;;2.10;0.98;;;-0.70;94.10;;;;;;5024552;28;20029;-73
2024/01/09 12:01:58;;;;;;;2.83;0.73;;;-0.60;94.00;;;;;;5023749;28;20502;-73
2024/01/09 12:04:24;;;;;;;4.68;1.05;;;-0.70;93.90;;;;;;5014835;28;20116;-74
2024/01/09 12:06:50;;;;;;;2.88;0.65;;;-0.70;94.50;;;;;;5020137;28;20046;-73
2024/01/09 12:09:15;;;;;;;2.40;1.13;;;-0.70;94.20;;;;;;5032779;28;20389;-74
2024/01/09 12:11:41;;;;;;;7.88;1.02;;;-0.60;94.00;;;;;;5009602;28;20383;-74
2024/01/09 12:14:07;;;;;;;2.05;0.80;;;-0.60;94.20;;;;;;5016147;28;20399;-73
2024/01/09 12:16:34;;;;;;;3.67;1.15;;;-0.60;94.50;;;;;;5016711;28;20069;-76
2024/01/09 12:19:00;;;;;;;4.05;1.40;;;-0.60;94.40;;;;;;5020049;28;20482;-74
2024/01/09 12:21:28;;;;;;;4.57;0.88;;;-0.50;94.50;;;;;;5020343;28;20032;-72
2024/01/09 12:23:55;;;;;;;3.55;0.98;;;-0.50;94.20;;;;;;5020462;28;20041;-74
2024/01/09 12:26:23;;;;;;;2.45;0.88;;;-0.50;94.40;;;;;;5025966;28;20119;-74
2024/01/09 12:28:50;;;;;;;3.42;0.90;;;-0.50;94.90;;;;;;5009245;28;20037;-75
2024/01/09 12:31:17;;;;;;;2.80;0.70;;;-0.50;94.80;;;;;;5041713;28;20046;-73
2024/01/09 12:33:44;;;;;;;7.00;1.60;;;-0.50;94.60;;;;;;5032496;28;20092;-75
2024/01/09 12:36:09;;;;;;;1.70;0.85;;;-0.50;94.80;;;;;;5017266;28;20075;-73
2024/01/09 12:38:35;;;;;;;4.40;1.00;;;-0.40;94.70;;;;;;5016969;28;20499;-74
2024/01/09 12:41:04;;;;;;;2.63;0.85;;;-0.40;94.40;;;;;;5012969;28;20030;-73
2024/01/09 12:43:30;;;;;;;2.42;1.10;;;-0.40;94.30;;;;;;5016420;28;20400;-73